createdAt,value
2018-04-18T00:01:20.626Z,97753.56
2018-04-18T00:03:46.526Z,97752.00
2018-04-18T00:06:15.800Z,97752.95
2018-04-18T00:08:41.710Z,97751.17
2018-04-18T00:11:11.538Z,97749.94
2018-04-18T00:13:37.425Z,97755.52
2018-04-18T00:16:06.571Z,97749.88
2018-04-18T00:18:32.446Z,97753.80
2018-04-18T00:20:58.355Z,97753.05
2018-04-18T00:23:24.266Z,97749.56
2018-04-18T00:25:50.156Z,97750.45
2018-04-18T00:28:17.094Z,97747.47
2018-04-18T00:30:43.006Z,97751.02
2018-04-18T00:33:11.224Z,97754.55
2018-04-18T00:35:37.113Z,97750.73
2018-04-18T00:38:06.457Z,97756.96
2018-04-18T00:40:32.345Z,97757.19
2018-04-18T00:43:01.712Z,97755.34
2018-04-18T00:45:27.631Z,97768.00
2018-04-18T00:47:57.140Z,97765.99
2018-04-18T00:50:23.039Z,97764.06
2018-04-18T00:52:50.195Z,97766.75
2018-04-18T00:55:16.076Z,97764.56
2018-04-18T00:57:41.974Z,97764.67
2018-04-18T01:00:07.875Z,97761.71
2018-04-18T01:02:33.779Z,97768.59
2018-04-18T01:05:03.574Z,97767.81
2018-04-18T01:07:29.509Z,97770.42
2018-04-18T01:09:56.928Z,97766.39
2018-04-18T01:12:22.796Z,97771.59
2018-04-18T01:14:52.151Z,97777.47
2018-04-18T01:17:18.051Z,97777.69
2018-04-18T01:19:47.602Z,97776.59
2018-04-18T01:22:13.495Z,97777.75
2018-04-18T01:24:40.859Z,97782.52
2018-04-18T01:27:06.763Z,97780.47
2018-04-18T01:29:36.271Z,97775.79
2018-04-18T01:32:02.204Z,97784.73
2018-04-18T01:34:28.098Z,97784.33
2018-04-18T01:36:53.999Z,97787.52
2018-04-18T01:39:19.900Z,97789.11
2018-04-18T01:41:47.679Z,97787.23
2018-04-18T01:44:13.611Z,97788.00
2018-04-18T01:46:43.449Z,97796.09
2018-04-18T01:49:20.695Z,97792.42
2018-04-18T01:51:46.622Z,97789.36
2018-04-18T01:54:12.491Z,97786.09
2018-04-18T01:56:38.400Z,97788.39
2018-04-18T01:59:04.303Z,97791.55
2018-04-18T02:01:30.218Z,97790.14
2018-04-18T02:03:56.088Z,97788.02
2018-04-18T02:06:21.979Z,97793.70
2018-04-18T02:08:47.951Z,97795.50
2018-04-18T02:11:13.852Z,97804.17
2018-04-18T02:13:39.761Z,97800.21
2018-04-18T02:16:05.659Z,97801.02
2018-04-18T02:18:32.527Z,97799.52
2018-04-18T02:20:58.436Z,97799.77
2018-04-18T02:23:27.196Z,97800.48
2018-04-18T02:25:53.067Z,97797.64
2018-04-18T02:28:22.686Z,97800.46
2018-04-18T02:30:48.583Z,97800.57
2018-04-18T02:33:18.129Z,97794.45
2018-04-18T02:35:44.075Z,97799.65
2018-04-18T02:38:11.046Z,97799.94
2018-04-18T02:40:36.976Z,97803.95
2018-04-18T02:43:05.957Z,97803.58
2018-04-18T02:45:31.849Z,97805.75
2018-04-18T02:47:57.769Z,97811.88
2018-04-18T02:50:23.660Z,97810.46
2018-04-18T02:52:49.554Z,97810.69
2018-04-18T02:55:19.331Z,97811.87
2018-04-18T02:57:45.226Z,97807.86
2018-04-18T03:00:12.327Z,97809.04
2018-04-18T03:02:38.221Z,97812.19
2018-04-18T03:05:07.643Z,97810.94
2018-04-18T03:07:33.627Z,97810.72
2018-04-18T03:10:02.689Z,97810.57
2018-04-18T03:12:28.575Z,97809.05
2018-04-18T03:14:57.960Z,97810.88
2018-04-18T03:17:23.903Z,97816.14
2018-04-18T03:19:51.196Z,97812.34
2018-04-18T03:22:17.066Z,97814.81
2018-04-18T03:24:42.983Z,97814.64
2018-04-18T03:27:08.867Z,97815.61
2018-04-18T03:29:34.759Z,97810.89
2018-04-18T03:32:04.485Z,97811.16
2018-04-18T03:34:30.348Z,97816.31
2018-04-18T03:36:57.762Z,97814.03
2018-04-18T03:39:23.665Z,97822.06
2018-04-18T03:41:53.326Z,97816.42
2018-04-18T03:44:19.215Z,97817.73
2018-04-18T03:46:48.104Z,97816.05
2018-04-18T03:49:14.023Z,97816.78
2018-04-18T03:51:43.238Z,97819.72
2018-04-18T03:54:09.162Z,97820.69
2018-04-18T03:56:38.222Z,97821.90
2018-04-18T03:59:04.096Z,97825.42
2018-04-18T04:01:29.955Z,97827.20
2018-04-18T04:03:55.895Z,97828.83
2018-04-18T04:06:21.793Z,97829.23
2018-04-18T04:08:48.101Z,97834.98
2018-04-18T04:11:14.000Z,97833.69
2018-04-18T04:13:42.863Z,97832.88
2018-04-18T04:16:21.334Z,97837.20
2018-04-18T04:21:57.481Z,97835.41
2018-04-18T04:27:21.999Z,97838.58
2018-04-18T04:29:47.877Z,97833.33
2018-04-18T04:32:13.754Z,97836.86
2018-04-18T04:34:39.679Z,97839.55
2018-04-18T04:37:05.593Z,97837.17
2018-04-18T04:39:46.515Z,97837.76
2018-04-18T04:42:12.423Z,97838.48
2018-04-18T04:44:38.323Z,97845.31
2018-04-18T04:47:04.182Z,97840.98
2018-04-18T04:49:30.107Z,97850.52
2018-04-18T04:51:55.971Z,97847.82
2018-04-18T04:54:21.869Z,97849.13
2018-04-18T04:56:47.777Z,97856.74
2018-04-18T04:59:13.669Z,97860.03
2018-04-18T05:01:39.556Z,97859.55
2018-04-18T05:04:05.441Z,97862.83
2018-04-18T05:06:31.375Z,97864.02
2018-04-18T05:08:57.318Z,97869.41
2018-04-18T05:11:23.215Z,97869.60
2018-04-18T05:13:49.117Z,97874.17
2018-04-18T05:16:14.987Z,97874.74
2018-04-18T05:18:40.901Z,97878.35
2018-04-18T05:21:07.368Z,97878.87
2018-04-18T05:23:33.254Z,97879.75
2018-04-18T05:26:03.094Z,97880.42
2018-04-18T05:28:29.068Z,97877.58
2018-04-18T05:30:58.508Z,97882.10
2018-04-18T05:33:24.389Z,97880.19
2018-04-18T05:35:50.223Z,97880.59
2018-04-18T05:38:16.153Z,97886.28
2018-04-18T05:40:42.065Z,97886.18
2018-04-18T05:43:08.514Z,97885.09
2018-04-18T05:45:34.388Z,97890.31
2018-04-18T05:48:03.375Z,97887.00
2018-04-18T05:50:29.258Z,97889.97
2018-04-18T05:52:59.190Z,97895.20
2018-04-18T05:55:25.122Z,97896.76
2018-04-18T05:57:54.344Z,97898.47
2018-04-18T06:00:20.311Z,97906.42
2018-04-18T06:02:47.559Z,97900.56
2018-04-18T06:05:13.503Z,97910.09
2018-04-18T06:07:42.711Z,97911.63
2018-04-18T06:10:08.610Z,97910.88
2018-04-18T06:12:34.521Z,97910.62
2018-04-18T06:15:00.460Z,97912.28
2018-04-18T06:17:26.329Z,97907.47
2018-04-18T06:19:54.246Z,97911.69
2018-04-18T06:22:20.152Z,97912.81
2018-04-18T06:24:49.432Z,97914.38
2018-04-18T06:27:15.365Z,97902.64
2018-04-18T06:29:43.246Z,97911.56
2018-04-18T06:32:09.150Z,97905.28
2018-04-18T06:34:38.522Z,97897.53
2018-04-18T06:37:04.385Z,97907.23
2018-04-18T06:39:33.615Z,97903.83
2018-04-18T06:41:59.498Z,97912.73
2018-04-18T06:44:28.515Z,97912.73
2018-04-18T06:46:54.451Z,97912.70
2018-04-18T06:49:20.337Z,97917.30
2018-04-18T06:51:46.217Z,97917.25
2018-04-18T06:54:12.125Z,97915.18
2018-04-18T06:56:39.640Z,97920.73
2018-04-18T06:59:05.566Z,97915.47
2018-04-18T07:01:34.686Z,97920.72
2018-04-18T07:04:00.574Z,97913.51
2018-04-18T07:06:29.760Z,97916.19
2018-04-18T07:08:55.692Z,97917.03
2018-04-18T07:11:24.815Z,97908.55
2018-04-18T07:13:50.729Z,97907.92
2018-04-18T07:16:17.985Z,97910.38
2018-04-18T07:18:43.912Z,97912.94
2018-04-18T07:21:12.784Z,97911.09
2018-04-18T07:23:38.646Z,97911.77
2018-04-18T07:26:04.534Z,97913.94
2018-04-18T07:28:30.520Z,97916.59
2018-04-18T07:30:56.431Z,97915.52
2018-04-18T07:33:26.087Z,97920.60
2018-04-18T07:35:52.019Z,97916.16
2018-04-18T07:38:19.768Z,97912.97
2018-04-18T07:40:45.680Z,97915.73
2018-04-18T07:43:14.872Z,97914.23
2018-04-18T07:45:40.766Z,97910.30
2018-04-18T07:48:10.167Z,97909.58
2018-04-18T07:50:36.042Z,97919.73
2018-04-18T07:53:03.435Z,97911.45
2018-04-18T07:55:29.369Z,97915.34
2018-04-18T07:57:58.826Z,97915.14
2018-04-18T08:00:24.738Z,97907.48
2018-04-18T08:02:50.618Z,97914.95
2018-04-18T08:05:16.515Z,97919.78
2018-04-18T08:07:42.430Z,97915.21
2018-04-18T08:10:09.767Z,97919.59
2018-04-18T08:12:35.669Z,97927.42
2018-04-18T08:15:04.538Z,97921.05
2018-04-18T08:17:30.448Z,97926.05
2018-04-18T08:19:59.752Z,97918.07
2018-04-18T08:22:25.657Z,97921.44
2018-04-18T08:24:55.036Z,97932.69
2018-04-18T08:27:20.923Z,97928.95
2018-04-18T08:29:50.228Z,97931.95
2018-04-18T08:32:16.110Z,97933.38
2018-04-18T08:34:43.521Z,97932.95
2018-04-18T08:37:09.448Z,97926.11
2018-04-18T08:39:35.347Z,97932.42
2018-04-18T08:42:01.272Z,97929.24
2018-04-18T08:44:27.169Z,97932.13
2018-04-18T08:46:56.638Z,97935.39
2018-04-18T08:49:22.565Z,97932.29
2018-04-18T08:51:49.980Z,97931.09
2018-04-18T08:54:15.880Z,97934.01
2018-04-18T08:56:45.282Z,97938.95
2018-04-18T08:59:11.193Z,97932.52
2018-04-18T09:01:39.389Z,97932.77
2018-04-18T09:04:05.366Z,97922.39
2018-04-18T09:06:33.662Z,97935.13
2018-04-18T09:08:59.586Z,97930.36
2018-04-18T09:11:28.343Z,97930.89
2018-04-18T09:13:54.259Z,97930.80
2018-04-18T09:16:20.154Z,97928.95
2018-04-18T09:18:46.079Z,97928.94
2018-04-18T09:21:11.974Z,97926.98
2018-04-18T09:23:41.022Z,97928.34
2018-04-18T09:26:06.897Z,97925.37
2018-04-18T09:28:36.544Z,97929.02
2018-04-18T09:31:02.463Z,97936.02
2018-04-18T09:33:30.007Z,97937.27
2018-04-18T09:35:55.899Z,97937.44
2018-04-18T09:38:24.947Z,97930.95
2018-04-18T09:40:50.835Z,97932.86
2018-04-18T09:43:19.840Z,97929.86
2018-04-18T09:45:45.714Z,97930.88
2018-04-18T09:48:15.539Z,97924.02
2018-04-18T09:50:41.483Z,97929.88
2018-04-18T09:53:07.331Z,97930.94
2018-04-18T09:55:33.181Z,97929.96
2018-04-18T09:57:59.257Z,97932.49
2018-04-18T10:00:32.296Z,97935.55
2018-04-18T10:03:04.402Z,97924.41
2018-04-18T10:05:30.291Z,97923.61
2018-04-18T10:07:56.220Z,97926.95
2018-04-18T10:10:22.166Z,97922.86
2018-04-18T10:12:48.016Z,97921.47
2018-04-18T10:15:13.939Z,97923.48
2018-04-18T10:17:39.835Z,97922.14
2018-04-18T10:20:05.763Z,97929.57
2018-04-18T10:22:31.667Z,97923.06
2018-04-18T10:25:00.872Z,97924.84
2018-04-18T10:27:26.785Z,97916.72
2018-04-18T10:29:52.708Z,97915.10
2018-04-18T10:32:18.614Z,97916.91
2018-04-18T10:34:44.547Z,97918.45
2018-04-18T10:37:11.302Z,97911.78
2018-04-18T10:39:37.210Z,97916.48
2018-04-18T10:42:07.152Z,97917.06
2018-04-18T10:44:33.070Z,97916.51
2018-04-18T10:47:02.076Z,97920.87
2018-04-18T10:49:27.980Z,97910.38
2018-04-18T10:51:55.148Z,97911.81
2018-04-18T10:54:21.023Z,97903.71
2018-04-18T10:56:50.133Z,97905.55
2018-04-18T10:59:16.014Z,97901.02
2018-04-18T11:01:45.169Z,97903.87
2018-04-18T11:04:11.066Z,97901.94
2018-04-18T11:06:36.964Z,97892.55
2018-04-18T11:09:02.893Z,97896.53
2018-04-18T11:11:28.797Z,97900.25
2018-04-18T11:13:56.301Z,97902.16
2018-04-18T11:16:22.195Z,97885.47
2018-04-18T11:18:51.944Z,97888.55
2018-04-18T11:21:17.867Z,97887.43
2018-04-18T11:23:47.210Z,97878.56
2018-04-18T11:26:13.119Z,97884.20
2018-04-18T11:28:40.446Z,97879.80
2018-04-18T11:31:06.327Z,97882.23
2018-04-18T11:33:36.008Z,97889.48
2018-04-18T11:36:01.911Z,97875.48
2018-04-18T11:38:31.206Z,97866.50
2018-04-18T11:40:57.115Z,97868.03
2018-04-18T11:43:23.005Z,97866.52
2018-04-18T11:45:48.921Z,97872.67
2018-04-18T11:48:14.821Z,97863.82
2018-04-18T11:50:41.547Z,97863.03
2018-04-18T11:53:07.434Z,97858.08
2018-04-18T11:55:37.225Z,97851.95
2018-04-18T11:58:03.151Z,97854.23
2018-04-18T12:00:32.553Z,97858.77
2018-04-18T12:02:58.478Z,97854.70
2018-04-18T12:05:25.456Z,97862.13
2018-04-18T12:07:51.341Z,97868.08
2018-04-18T12:10:20.958Z,97857.41
2018-04-18T12:12:46.893Z,97853.16
2018-04-18T12:15:15.914Z,97874.25
2018-04-18T12:17:41.868Z,97858.44
2018-04-18T12:20:07.737Z,97858.95
2018-04-18T12:22:33.632Z,97852.64
2018-04-18T12:24:59.532Z,97852.06
2018-04-18T12:27:28.550Z,97856.34
2018-04-18T12:29:54.423Z,97864.14
2018-04-18T12:32:22.241Z,97853.22
2018-04-18T12:34:48.147Z,97856.08
2018-04-18T12:37:17.851Z,97857.81
2018-04-18T12:39:43.763Z,97861.50
2018-04-18T12:42:11.246Z,97855.24
2018-04-18T12:44:37.132Z,97852.91
2018-04-18T12:47:05.446Z,97854.19
2018-04-18T12:49:31.364Z,97845.81
2018-04-18T12:52:00.174Z,97841.91
2018-04-18T12:54:26.108Z,97847.77
2018-04-18T12:56:52.011Z,97836.59
2018-04-18T12:59:17.911Z,97838.44
2018-04-18T13:01:43.799Z,97832.14
2018-04-18T13:04:13.536Z,97828.85
2018-04-18T13:06:39.503Z,97830.86
2018-04-18T13:09:06.834Z,97825.94
2018-04-18T13:11:32.728Z,97825.89
2018-04-18T13:14:01.943Z,97812.65
2018-04-18T13:16:27.855Z,97822.77
2018-04-18T13:18:56.533Z,97818.08
2018-04-18T13:21:22.418Z,97816.30
2018-04-18T13:23:51.272Z,97819.88
2018-04-18T13:26:17.190Z,97824.18
2018-04-18T13:28:46.353Z,97813.47
2018-04-18T13:31:12.261Z,97814.66
2018-04-18T13:33:38.174Z,97805.27
2018-04-18T13:36:04.093Z,97802.09
2018-04-18T13:38:29.974Z,97812.23
2018-04-18T13:40:57.771Z,97806.02
2018-04-18T13:43:23.682Z,97806.47
2018-04-18T13:45:52.191Z,97802.91
2018-04-18T13:48:18.091Z,97801.28
2018-04-18T13:50:47.050Z,97800.72
2018-04-18T13:53:12.967Z,97804.61
2018-04-18T13:55:41.974Z,97793.41
2018-04-18T13:58:07.850Z,97795.21
2018-04-18T14:00:37.156Z,97790.94
2018-04-18T14:03:03.105Z,97791.77
2018-04-18T14:05:32.539Z,97782.30
2018-04-18T14:07:58.432Z,97786.09
2018-04-18T14:10:24.355Z,97782.30
2018-04-18T14:12:50.246Z,97777.56
2018-04-18T14:15:16.136Z,97772.80
2018-04-18T14:17:43.145Z,97770.67
2018-04-18T14:20:09.004Z,97780.23
2018-04-18T14:22:38.016Z,97773.55
2018-04-18T14:25:03.920Z,97773.80
2018-04-18T14:27:33.518Z,97769.95
2018-04-18T14:29:59.449Z,97765.88
2018-04-18T14:32:28.547Z,97767.77
2018-04-18T14:34:54.427Z,97769.23
2018-04-18T14:37:21.992Z,97770.54
2018-04-18T14:39:47.894Z,97768.10
2018-04-18T14:42:16.271Z,97767.75
2018-04-18T14:44:42.188Z,97765.20
2018-04-18T14:47:08.056Z,97764.72
2018-04-18T14:49:33.972Z,97758.11
2018-04-18T14:51:59.872Z,97755.23
2018-04-18T14:54:29.472Z,97750.90
2018-04-18T14:56:55.383Z,97763.02
2018-04-18T14:59:22.600Z,97755.88
2018-04-18T15:01:48.472Z,97758.08
2018-04-18T15:04:18.388Z,97755.47
2018-04-18T15:06:44.313Z,97754.47
2018-04-18T15:09:12.057Z,97757.98
2018-04-18T15:11:37.948Z,97761.92
2018-04-18T15:14:07.513Z,97757.20
2018-04-18T15:16:33.442Z,97754.34
2018-04-18T15:19:03.129Z,97752.21
2018-04-18T15:21:29.001Z,97744.16
2018-04-18T15:23:54.907Z,97751.08
2018-04-18T15:26:20.771Z,97747.09
2018-04-18T15:28:46.654Z,97742.28
2018-04-18T15:31:13.463Z,97737.23
2018-04-18T15:33:39.391Z,97743.99
2018-04-18T15:36:08.512Z,97735.95
2018-04-18T15:38:34.435Z,97737.56
2018-04-18T15:41:03.653Z,97742.25
2018-04-18T15:43:29.559Z,97731.58
2018-04-18T15:45:58.847Z,97732.80
2018-04-18T15:48:24.738Z,97728.42
2018-04-18T15:50:52.072Z,97732.73
2018-04-18T15:53:17.972Z,97726.03
2018-04-18T15:55:47.279Z,97730.40
2018-04-18T15:58:13.143Z,97727.70
2018-04-18T16:00:39.032Z,97723.73
2018-04-18T16:03:04.917Z,97724.38
2018-04-18T16:05:30.888Z,97725.57
2018-04-18T16:07:58.247Z,97721.05
2018-04-18T16:10:24.164Z,97722.24
2018-04-18T16:12:53.114Z,97724.45
2018-04-18T16:15:19.033Z,97729.74
2018-04-18T16:17:48.724Z,97723.88
2018-04-18T16:20:14.643Z,97723.32
2018-04-18T16:22:44.068Z,97721.45
2018-04-18T16:25:10.020Z,97716.44
2018-04-18T16:27:37.776Z,97715.52
2018-04-18T16:30:03.890Z,97728.91
2018-04-18T16:32:33.404Z,97715.09
2018-04-18T16:34:59.227Z,97718.05
2018-04-18T16:37:25.093Z,97716.30
2018-04-18T16:39:50.974Z,97720.41
2018-04-18T16:42:16.883Z,97718.95
2018-04-18T16:44:43.762Z,97724.50
2018-04-18T16:47:09.659Z,97725.03
2018-04-18T16:49:39.283Z,97718.47
2018-04-18T16:52:05.191Z,97716.16
2018-04-18T16:54:33.451Z,97717.40
2018-04-18T16:56:59.406Z,97723.69
2018-04-18T16:59:28.880Z,97713.38
2018-04-18T17:01:54.762Z,97715.47
2018-04-18T17:04:22.401Z,97709.77
2018-04-18T17:06:48.323Z,97711.81
2018-04-18T17:09:17.048Z,97715.52
2018-04-18T17:11:42.941Z,97711.58
2018-04-18T17:14:09.129Z,97718.12
2018-04-18T17:16:35.936Z,97710.16
2018-04-18T17:19:06.959Z,97711.39
2018-04-18T17:21:32.998Z,97718.91
2018-04-18T17:23:58.959Z,97712.23
2018-04-18T17:26:24.894Z,97708.95
2018-04-18T17:28:50.823Z,97712.89
2018-04-18T17:31:18.470Z,97714.45
2018-04-18T17:33:44.353Z,97717.41
2018-04-18T17:36:13.807Z,97713.67
2018-04-18T17:38:39.718Z,97706.58
2018-04-18T17:41:07.958Z,97712.69
2018-04-18T17:43:33.864Z,97715.17
2018-04-18T17:46:03.385Z,97716.08
2018-04-18T17:48:29.245Z,97715.66
2018-04-18T17:50:55.111Z,97720.30
2018-04-18T17:53:21.016Z,97719.25
2018-04-18T17:55:46.932Z,97714.66
2018-04-18T17:58:14.070Z,97715.82
2018-04-18T18:00:39.996Z,97713.83
2018-04-18T18:03:08.940Z,97714.69
2018-04-18T18:05:34.877Z,97711.39
2018-04-18T18:08:04.100Z,97712.98
2018-04-18T18:10:29.999Z,97708.64
2018-04-18T18:12:58.943Z,97713.09
2018-04-18T18:15:24.821Z,97717.66
2018-04-18T18:17:54.707Z,97715.66
2018-04-18T18:20:20.659Z,97716.61
2018-04-18T18:22:47.654Z,97716.88
2018-04-18T18:25:13.610Z,97718.38
2018-04-18T18:27:39.523Z,97724.95
2018-04-18T18:30:05.416Z,97721.91
2018-04-18T18:32:31.287Z,97720.64
2018-04-18T18:35:00.448Z,97731.20
2018-04-18T18:37:26.323Z,97729.71
2018-04-18T18:39:55.546Z,97730.42
2018-04-18T18:42:21.437Z,97732.42
2018-04-18T18:44:48.715Z,97728.99
2018-04-18T18:47:14.677Z,97734.37
2018-04-18T18:49:43.378Z,97738.75
2018-04-18T18:52:09.288Z,97734.70
2018-04-18T18:54:38.003Z,97744.44
2018-04-18T18:57:03.964Z,97747.23
2018-04-18T18:59:33.472Z,97744.98
2018-04-18T19:01:59.363Z,97747.61
2018-04-18T19:04:25.295Z,97747.41
2018-04-18T19:06:51.206Z,97754.53
2018-04-18T19:09:17.075Z,97753.29
2018-04-18T19:11:44.896Z,97758.36
2018-04-18T19:14:10.829Z,97750.15
2018-04-18T19:16:39.842Z,97759.53
2018-04-18T19:19:05.742Z,97756.55
2018-04-18T19:21:34.340Z,97748.95
2018-04-18T19:24:00.239Z,97760.26
2018-04-18T19:26:29.567Z,97752.41
2018-04-18T19:28:55.504Z,97754.67
2018-04-18T19:31:23.763Z,97756.66
2018-04-18T19:33:49.680Z,97751.22
2018-04-18T19:36:18.894Z,97758.50
2018-04-18T19:38:44.790Z,97759.16
2018-04-18T19:41:10.679Z,97762.77
2018-04-18T19:43:36.595Z,97759.55
2018-04-18T19:46:02.467Z,97763.24
2018-04-18T19:48:30.123Z,97767.64
2018-04-18T19:50:56.048Z,97769.74
2018-04-18T19:53:25.621Z,97768.69
2018-04-18T19:55:51.500Z,97764.75
2018-04-18T19:58:19.754Z,97767.47
2018-04-18T20:00:45.676Z,97768.31
2018-04-18T20:03:14.817Z,97769.98
2018-04-18T20:05:40.737Z,97769.93
2018-04-18T20:08:10.295Z,97770.85
2018-04-18T20:10:36.196Z,97763.95
2018-04-18T20:13:03.945Z,97765.58
2018-04-18T20:15:29.885Z,97760.64
2018-04-18T20:17:55.815Z,97760.91
2018-04-18T20:20:21.746Z,97762.09
2018-04-18T20:22:47.680Z,97763.25
2018-04-18T20:25:17.139Z,97759.88
2018-04-18T20:27:43.019Z,97760.52
2018-04-18T20:30:10.770Z,97758.66
2018-04-18T20:32:36.639Z,97753.33
2018-04-18T20:35:06.169Z,97762.78
2018-04-18T20:37:32.061Z,97757.58
2018-04-18T20:39:59.316Z,97756.45
2018-04-18T20:42:25.248Z,97756.27
2018-04-18T20:44:54.413Z,97751.70
2018-04-18T20:47:20.337Z,97755.26
2018-04-18T20:49:48.734Z,97757.67
2018-04-18T20:52:14.636Z,97749.02
2018-04-18T20:54:40.541Z,97754.13
2018-04-18T20:57:06.428Z,97748.31
2018-04-18T20:59:32.369Z,97753.59
2018-04-18T21:02:00.588Z,97745.96
2018-04-18T21:04:26.507Z,97750.34
2018-04-18T21:06:55.403Z,97746.01
2018-04-18T21:09:22.292Z,97745.13
2018-04-18T21:11:51.647Z,97744.42
2018-04-18T21:14:17.587Z,97746.34
2018-04-18T21:16:44.909Z,97752.34
2018-04-18T21:19:10.824Z,97742.73
2018-04-18T21:21:40.242Z,97741.28
2018-04-18T21:24:06.179Z,97718.50
2018-04-18T21:26:34.102Z,97739.92
2018-04-18T21:29:00.022Z,97742.92
2018-04-18T21:31:25.882Z,97741.22
2018-04-18T21:33:51.790Z,97742.07
2018-04-18T21:36:17.720Z,97743.75
2018-04-18T21:38:47.484Z,97739.54
2018-04-18T21:41:13.419Z,97742.89
2018-04-18T21:43:41.199Z,97743.18
2018-04-18T21:46:07.086Z,97742.71
2018-04-18T21:48:35.101Z,97741.67
2018-04-18T21:51:00.995Z,97738.28
2018-04-18T21:53:30.903Z,97742.09
2018-04-18T21:55:56.812Z,97741.70
2018-04-18T21:58:24.671Z,97739.17
2018-04-18T22:00:50.552Z,97739.09
2018-04-18T22:03:19.357Z,97737.92
2018-04-18T22:05:45.265Z,97741.38
2018-04-18T22:08:11.164Z,97738.41
2018-04-18T22:10:37.060Z,97729.45
2018-04-18T22:13:02.932Z,97741.02
2018-04-18T22:15:32.142Z,97738.80
2018-04-18T22:17:58.050Z,97736.09
2018-04-18T22:20:25.873Z,97741.87
2018-04-18T22:22:51.788Z,97739.69
2018-04-18T22:25:20.626Z,97736.77
2018-04-18T22:27:46.525Z,97741.77
2018-04-18T22:30:15.788Z,97742.56
2018-04-18T22:32:41.676Z,97744.44
2018-04-18T22:35:11.166Z,97746.88
2018-04-18T22:37:37.062Z,97745.93
2018-04-18T22:40:04.720Z,97754.42
2018-04-18T22:42:30.557Z,97758.91
2018-04-18T22:44:56.474Z,97757.72
2018-04-18T22:47:22.322Z,97754.20
2018-04-18T22:49:48.223Z,97757.47
2018-04-18T22:52:16.406Z,97759.09
2018-04-18T22:54:42.260Z,97755.88
2018-04-18T22:57:11.007Z,97761.54
2018-04-18T22:59:36.854Z,97755.92
2018-04-18T23:02:06.439Z,97761.03
2018-04-18T23:04:32.392Z,97758.31
2018-04-18T23:07:01.332Z,97756.66
2018-04-18T23:09:27.242Z,97757.06
2018-04-18T23:11:55.208Z,97750.92
2018-04-18T23:14:21.088Z,97751.17
2018-04-18T23:16:50.367Z,97751.34
2018-04-18T23:19:16.287Z,97755.74
2018-04-18T23:21:42.182Z,97752.93
2018-04-18T23:24:08.104Z,97751.13
2018-04-18T23:26:33.988Z,97760.67
2018-04-18T23:29:01.825Z,97743.05
2018-04-18T23:31:27.736Z,97747.42
2018-04-18T23:33:57.253Z,97742.03
2018-04-18T23:36:23.175Z,97741.60
2018-04-18T23:38:53.027Z,97732.63
2018-04-18T23:41:18.910Z,97743.35
2018-04-18T23:43:46.518Z,97740.56
2018-04-18T23:46:12.421Z,97732.72
2018-04-18T23:48:42.078Z,97736.65
2018-04-18T23:51:07.948Z,97730.50
2018-04-18T23:53:35.395Z,97736.14
2018-04-18T23:56:01.345Z,97727.88
2018-04-18T23:58:27.279Z,97734.16
